Time;durP1;ratioP1;P1;durP2;ratioP2;P2;SDS_P1;SDS_P2;PMS_P1;PMS_P2;Temp;Humidity;BMP_temperature;BMP_pressure;BME280_temperature;BME280_humidity;BME280_pressure;Samples;Min_cycle;Max_cycle;Signal;HPM_P1;HPM_P2
2022/02/04 00:05:01;;;;;;;27.08;5.65;;;;;;;2.74;100.00;95649.72;5090660;28;25001;-73
2022/02/04 00:07:51;;;;;;;71.95;5.78;;;;;;;2.52;100.00;95654.75;5090063;28;24497;-73
2022/02/04 00:21:27;;;;;;;74.65;4.25;;;;;;;2.18;100.00;95660.94;5095129;28;25037;-74
2022/02/04 00:23:54;;;;;;;20.38;3.72;;;;;;;2.21;100.00;95675.34;5094603;28;24426;-74
2022/02/04 00:26:25;;;;;;;70.22;4.43;;;;;;;2.04;100.00;95680.13;5094181;28;24418;-73
2022/02/04 00:29:00;;;;;;;93.03;4.85;;;;;;;1.87;100.00;95680.66;5094923;28;24422;-73
2022/02/04 00:31:32;;;;;;;66.38;4.05;;;;;;;1.83;100.00;95673.97;5094535;28;24834;-73
2022/02/04 00:34:04;;;;;;;69.18;4.57;;;;;;;1.87;100.00;95670.44;5094318;28;25028;-73
2022/02/04 00:36:37;;;;;;;75.15;4.95;;;;;;;1.80;100.00;95674.06;5093970;28;24517;-74
2022/02/04 00:39:08;;;;;;;20.35;4.15;;;;;;;1.79;100.00;95668.13;5094324;28;24437;-73
2022/02/04 00:41:38;;;;;;;59.50;5.03;;;;;;;1.96;100.00;95664.19;5094280;28;24936;-74
2022/02/04 00:44:09;;;;;;;90.83;5.70;;;;;;;1.87;100.00;95661.06;5094273;28;24460;-74
2022/02/04 00:46:41;;;;;;;104.97;5.73;;;;;;;1.92;100.00;95666.84;5094206;28;24425;-73
2022/02/04 00:49:13;;;;;;;97.85;4.85;;;;;;;1.98;100.00;95676.06;5094646;28;24422;-73
2022/02/04 00:51:49;;;;;;;58.38;4.72;;;;;;;1.90;100.00;95673.72;5094332;28;24414;-74
2022/02/04 00:54:23;;;;;;;41.25;3.65;;;;;;;1.99;100.00;95676.88;5094276;28;24422;-73
2022/02/04 00:57:03;;;;;;;48.55;4.22;;;;;;;2.02;100.00;95676.78;5094008;28;24429;-73
2022/02/04 01:13:23;;;;;;;28.17;3.88;;;;;;;2.11;100.00;95691.81;5093703;28;24460;-73
2022/02/04 01:26:45;;;;;;;4.90;4.40;;;;;;;2.09;100.00;95693.59;5093330;28;24390;-74
2022/02/04 01:29:13;;;;;;;4.60;4.20;;;;;;;2.24;100.00;95692.28;5093661;28;24427;-74
2022/02/04 01:31:40;;;;;;;3.70;3.40;;;;;;;2.24;100.00;95692.28;5092125;28;24498;-74
2022/02/04 01:34:07;;;;;;;4.30;3.90;;;;;;;2.30;100.00;95692.09;5093546;28;24456;-73
2022/02/04 01:36:33;;;;;;;5.05;3.97;;;;;;;2.38;100.00;95695.25;5092983;28;24421;-73
2022/02/04 01:38:59;;;;;;;5.18;4.10;;;;;;;2.58;100.00;95703.09;5093273;28;24442;-73
2022/02/04 01:41:26;;;;;;;4.47;4.05;;;;;;;2.77;100.00;95697.38;5093216;28;24417;-74
2022/02/04 01:43:53;;;;;;;4.90;4.32;;;;;;;2.70;100.00;95696.75;5093187;28;24429;-73
2022/02/04 01:46:21;;;;;;;4.10;3.70;;;;;;;2.61;100.00;95692.78;5093036;28;24851;-73
2022/02/04 01:48:47;;;;;;;4.57;4.13;;;;;;;2.57;100.00;95698.88;5093117;28;24429;-73
2022/02/04 01:51:15;;;;;;;4.30;3.90;;;;;;;2.55;100.00;95702.38;5093049;28;24449;-74
2022/02/04 01:53:42;;;;;;;4.25;3.85;;;;;;;2.63;100.00;95705.50;5093124;28;25004;-74
2022/02/04 01:56:10;;;;;;;4.30;3.90;;;;;;;2.64;100.00;95691.84;5092969;28;24421;-73
2022/02/04 01:58:38;;;;;;;3.90;3.60;;;;;;;2.75;100.00;95688.94;5092753;28;24410;-74
2022/02/04 02:01:06;;;;;;;6.80;4.10;;;;;;;2.81;100.00;95699.78;5092744;28;24410;-73
2022/02/04 02:03:34;;;;;;;6.70;3.90;;;;;;;2.89;100.00;95695.28;5092729;28;24422;-74
2022/02/04 02:06:05;;;;;;;5.20;3.90;;;;;;;2.82;100.00;95692.97;5092782;28;24421;-74
2022/02/04 02:08:32;;;;;;;5.53;3.97;;;;;;;2.88;100.00;95695.31;5092652;28;24426;-74
2022/02/04 02:10:59;;;;;;;5.80;4.05;;;;;;;2.94;100.00;95691.72;5092578;28;24809;-73
2022/02/04 02:13:34;;;;;;;4.32;3.92;;;;;;;2.87;100.00;95691.09;5092482;28;24974;-74
2022/02/04 02:16:12;;;;;;;4.20;3.80;;;;;;;2.91;100.00;95687.53;5092363;28;24425;-74
2022/02/04 02:35:28;;;;;;;4.05;3.65;;;;;;;3.12;100.00;95696.19;5092113;28;24456;-74
2022/02/04 02:43:53;;;;;;;4.05;3.65;;;;;;;3.46;100.00;95690.72;5091389;28;24457;-74
2022/02/04 02:46:43;;;;;;;4.53;4.13;;;;;;;3.55;100.00;95697.22;5091707;28;24462;-74
2022/02/04 02:49:36;;;;;;;4.67;4.23;;;;;;;3.53;100.00;95697.28;5091923;28;24422;-74
2022/02/04 02:52:10;;;;;;;3.97;3.58;;;;;;;3.45;100.00;95701.84;5091656;28;24515;-74
2022/02/04 03:00:26;;;;;;;4.32;3.80;;;;;;;3.56;100.00;95684.38;5091633;28;24542;-73
2022/02/04 03:02:57;;;;;;;3.95;3.63;;;;;;;3.46;100.00;95695.00;5091667;28;24521;-73
2022/02/04 03:05:24;;;;;;;4.22;3.83;;;;;;;3.34;100.00;95694.56;5091459;28;25003;-73
2022/02/04 03:07:50;;;;;;;4.03;3.63;;;;;;;3.39;100.00;95696.94;5091392;28;24504;-74
2022/02/04 03:10:18;;;;;;;4.60;3.60;;;;;;;3.37;100.00;95696.16;5091470;28;24426;-73
2022/02/04 03:12:45;;;;;;;4.18;3.75;;;;;;;3.35;100.00;95693.66;5091519;28;24429;-73
2022/02/04 03:15:12;;;;;;;4.10;3.22;;;;;;;3.32;100.00;95695.50;5090960;28;24432;-73
2022/02/04 03:17:40;;;;;;;4.20;3.80;;;;;;;3.26;100.00;95693.13;5091295;28;24426;-73
2022/02/04 03:20:10;;;;;;;4.80;4.05;;;;;;;3.29;100.00;95703.28;5091301;28;24541;-73
2022/02/04 03:22:37;;;;;;;5.35;4.15;;;;;;;3.21;100.00;95702.72;5091387;28;24784;-74
2022/02/04 03:25:05;;;;;;;4.70;3.95;;;;;;;3.16;100.00;95700.31;5091097;28;24505;-73
2022/02/04 03:27:38;;;;;;;3.97;3.67;;;;;;;3.00;100.00;95696.59;5090833;28;24850;-73
2022/02/04 03:30:12;;;;;;;4.22;3.50;;;;;;;3.03;100.00;95694.78;5091289;28;24422;-73
2022/02/04 03:32:43;;;;;;;3.97;3.47;;;;;;;2.90;100.00;95691.81;5090933;28;24483;-73
2022/02/04 03:35:10;;;;;;;4.00;3.60;;;;;;;2.92;100.00;95696.88;5091038;28;24534;-73
2022/02/04 03:37:36;;;;;;;6.85;3.90;;;;;;;2.94;100.00;95700.22;5090751;28;24635;-74
2022/02/04 03:40:04;;;;;;;4.20;3.45;;;;;;;2.93;100.00;95696.00;5090903;28;24441;-74
2022/02/04 03:42:30;;;;;;;3.83;3.42;;;;;;;2.95;100.00;95699.31;5091019;28;24425;-73
2022/02/04 03:44:58;;;;;;;4.13;3.22;;;;;;;3.10;100.00;95705.63;5090983;28;24423;-73
2022/02/04 03:47:24;;;;;;;3.50;3.20;;;;;;;3.02;100.00;95698.22;5090673;28;24426;-73
2022/02/04 03:49:51;;;;;;;4.40;3.20;;;;;;;3.00;100.00;95699.16;5090990;28;24468;-73
2022/02/04 03:52:17;;;;;;;3.97;3.28;;;;;;;2.98;100.00;95700.94;5090738;28;24453;-73
2022/02/04 03:54:44;;;;;;;3.67;3.38;;;;;;;2.99;100.00;95702.63;5089864;28;24425;-73
2022/02/04 03:57:10;;;;;;;3.40;3.10;;;;;;;3.00;100.00;95702.56;5090749;28;24422;-73
2022/02/04 03:59:37;;;;;;;3.90;3.30;;;;;;;3.01;100.00;95700.84;5090732;28;24430;-73
2022/02/04 04:02:05;;;;;;;3.33;3.03;;;;;;;3.02;100.00;95694.84;5090767;28;24425;-73
2022/02/04 04:04:33;;;;;;;4.47;3.60;;;;;;;3.07;100.00;95706.56;5090732;28;24418;-73
2022/02/04 04:07:00;;;;;;;3.45;2.90;;;;;;;3.02;100.00;95702.50;5090326;28;25045;-73
2022/02/04 04:09:27;;;;;;;3.88;3.38;;;;;;;2.97;100.00;95709.53;5090509;28;24448;-73
2022/02/04 04:11:55;;;;;;;4.10;3.30;;;;;;;3.05;100.00;95710.91;5090408;28;24974;-73
2022/02/04 04:14:21;;;;;;;5.38;4.00;;;;;;;3.01;100.00;95708.53;5090778;28;24430;-74
2022/02/04 04:16:48;;;;;;;3.65;3.30;;;;;;;2.97;100.00;95710.34;5090267;28;25162;-73
2022/02/04 04:19:16;;;;;;;3.92;3.15;;;;;;;3.00;100.00;95707.66;5090722;28;24437;-74
2022/02/04 04:21:43;;;;;;;4.85;3.85;;;;;;;2.98;100.00;95712.03;5090512;28;24499;-73
2022/02/04 04:24:09;;;;;;;3.75;3.10;;;;;;;2.98;100.00;95714.56;5090451;28;24853;-74
2022/02/04 04:26:38;;;;;;;3.70;3.13;;;;;;;3.03;100.00;95717.81;5090053;28;25249;-74
2022/02/04 04:29:04;;;;;;;3.27;2.97;;;;;;;3.03;100.00;95720.34;5090334;28;24426;-74
2022/02/04 04:31:31;;;;;;;4.47;3.15;;;;;;;3.04;100.00;95711.81;5090622;28;24827;-74
2022/02/04 04:33:57;;;;;;;3.50;3.20;;;;;;;2.92;100.00;95719.88;5090764;28;24433;-74
2022/02/04 04:36:25;;;;;;;3.70;3.10;;;;;;;2.89;100.00;95712.31;5090341;28;24417;-74
2022/02/04 04:38:57;;;;;;;5.45;3.55;;;;;;;2.84;100.00;95721.88;5090916;28;24414;-74
2022/02/04 04:41:33;;;;;;;4.00;3.40;;;;;;;2.82;100.00;95726.22;5090584;28;25022;-74
2022/02/04 04:44:26;;;;;;;3.25;2.95;;;;;;;2.86;100.00;95728.63;5090909;28;24971;-74
2022/02/04 05:28:17;;;;;;;2.95;2.72;;;;;;;2.97;100.00;95718.03;5094799;28;24840;-74
2022/02/04 05:30:43;;;;;;;3.00;2.70;;;;;;;2.88;100.00;95723.44;5094846;28;24434;-74
2022/02/04 05:33:10;;;;;;;3.40;2.90;;;;;;;2.89;100.00;95723.41;5093987;28;24433;-74
2022/02/04 05:35:37;;;;;;;3.57;2.90;;;;;;;2.90;100.00;95724.25;5093319;28;24406;-74
2022/02/04 05:38:05;;;;;;;3.50;3.03;;;;;;;3.00;100.00;95723.03;5093078;28;24501;-74
2022/02/04 05:40:39;;;;;;;2.80;2.60;;;;;;;3.08;100.00;95722.78;5093134;28;24453;-74
2022/02/04 05:43:15;;;;;;;3.63;2.58;;;;;;;3.14;100.00;95728.50;5093388;28;24426;-74
2022/02/04 05:45:50;;;;;;;2.92;2.65;;;;;;;3.17;100.00;95727.56;5093260;28;24426;-74
2022/02/04 05:48:16;;;;;;;3.30;3.00;;;;;;;3.30;100.00;95728.84;5093156;28;24707;-74
2022/02/04 05:50:52;;;;;;;2.63;2.42;;;;;;;3.35;100.00;95734.63;5092990;28;24422;-74
2022/02/04 05:53:24;;;;;;;3.42;2.70;;;;;;;3.40;100.00;95730.16;5093538;28;24495;-74
2022/02/04 05:55:59;;;;;;;3.50;2.75;;;;;;;3.34;100.00;95747.47;5094643;28;24859;-74
2022/02/04 05:58:37;;;;;;;3.60;3.05;;;;;;;3.30;100.00;95744.19;5094044;28;24430;-73
2022/02/04 06:01:27;;;;;;;5.30;4.40;;;;;;;3.15;100.00;95735.31;5094516;28;24441;-74
2022/02/04 06:04:04;;;;;;;3.40;3.10;;;;;;;3.15;100.00;95743.00;5094207;28;24426;-73
2022/02/04 06:06:57;;;;;;;4.13;3.55;;;;;;;3.13;100.00;95741.38;5093606;28;24513;-74
2022/02/04 06:12:45;;;;;;;5.25;2.95;;;;;;;3.03;100.00;95751.06;5092731;28;24429;-74
2022/02/04 06:22:06;;;;;;;3.38;2.95;;;;;;;3.05;100.00;95753.59;5092550;28;25079;-74
2022/02/04 06:23:28;;;;;;;3.20;2.90;;;;;;;2.95;100.00;95745.38;5092383;28;24470;-74
2022/02/04 06:25:54;;;;;;;3.20;2.90;;;;;;;2.97;100.00;95741.06;5092196;28;24447;-74
2022/02/04 06:28:23;;;;;;;3.35;2.90;;;;;;;2.98;100.00;95745.28;5091060;28;24966;-76
2022/02/04 06:30:49;;;;;;;3.20;2.90;;;;;;;2.98;100.00;95745.28;5092447;28;24454;-75
2022/02/04 06:33:16;;;;;;;3.42;2.60;;;;;;;3.00;100.00;95747.78;5092336;28;24475;-75
2022/02/04 06:35:42;;;;;;;3.30;2.30;;;;;;;3.05;100.00;95744.19;5092412;28;24422;-74
2022/02/04 06:38:09;;;;;;;2.73;2.53;;;;;;;3.03;100.00;95745.94;5092235;28;24418;-74
2022/02/04 06:40:35;;;;;;;4.57;2.92;;;;;;;3.04;100.00;95745.09;5092071;28;24445;-75
2022/02/04 06:43:02;;;;;;;2.95;2.60;;;;;;;3.03;100.00;95753.63;5092085;28;24429;-75
2022/02/04 06:45:30;;;;;;;4.18;2.78;;;;;;;3.06;100.00;95756.09;5091534;28;24943;-75
2022/02/04 06:47:56;;;;;;;3.83;2.63;;;;;;;3.03;100.00;95748.50;5092097;28;24421;-75
2022/02/04 06:50:22;;;;;;;3.15;2.55;;;;;;;3.06;100.00;95755.25;5092147;28;24406;-75
2022/02/04 06:52:53;;;;;;;3.00;2.70;;;;;;;3.07;100.00;95755.19;5091724;28;24437;-74
2022/02/04 06:55:20;;;;;;;2.95;2.60;;;;;;;3.07;100.00;95751.78;5091608;28;24479;-76
2022/02/04 06:57:48;;;;;;;3.45;2.88;;;;;;;3.00;100.00;95750.31;5091175;28;24425;-76
2022/02/04 07:00:18;;;;;;;3.30;2.50;;;;;;;3.06;100.00;95753.53;5091286;28;24516;-73
2022/02/04 07:02:46;;;;;;;3.53;2.85;;;;;;;3.03;100.00;95750.22;5091382;28;24434;-74
2022/02/04 07:05:14;;;;;;;4.78;2.80;;;;;;;3.04;100.00;95750.19;5091432;28;24415;-74
2022/02/04 07:07:45;;;;;;;2.85;2.40;;;;;;;3.05;100.00;95756.97;5090801;28;24437;-74
2022/02/04 07:10:16;;;;;;;2.70;2.50;;;;;;;3.03;100.00;95760.47;5090840;28;24421;-74
2022/02/04 07:12:51;;;;;;;2.77;2.57;;;;;;;3.02;100.00;95767.31;5091025;28;24491;-74
2022/02/04 07:15:46;;;;;;;5.05;3.60;;;;;;;3.00;100.00;95766.50;5091025;28;24452;-75
2022/02/04 07:20:58;;;;;;;3.80;3.05;;;;;;;2.95;100.00;95767.56;5090907;28;24479;-73
2022/02/04 07:23:24;;;;;;;3.20;2.75;;;;;;;2.94;100.00;95766.72;5090836;28;24959;-74
2022/02/04 07:25:50;;;;;;;2.88;2.63;;;;;;;2.92;100.00;95766.75;5090872;28;24437;-75
2022/02/04 07:28:17;;;;;;;4.30;2.75;;;;;;;2.96;100.00;95761.56;5090550;28;24437;-76
2022/02/04 07:30:44;;;;;;;3.10;2.80;;;;;;;2.97;100.00;95771.75;5090807;28;24448;-74
2022/02/04 07:33:16;;;;;;;7.10;2.75;;;;;;;2.98;100.00;95768.31;5090910;28;24422;-74
2022/02/04 07:38:49;;;;;;;3.15;2.90;;;;;;;2.99;100.00;95779.38;5090451;28;24455;-74
2022/02/04 07:41:15;;;;;;;3.30;3.00;;;;;;;3.01;100.00;95772.50;5090735;28;24757;-74
2022/02/04 07:43:42;;;;;;;3.00;2.70;;;;;;;3.05;100.00;95764.66;5090241;28;24873;-74
2022/02/04 07:46:10;;;;;;;10.85;3.22;;;;;;;3.04;100.00;95763.00;5090989;28;24425;-75
2022/02/04 07:48:38;;;;;;;2.97;2.78;;;;;;;3.06;100.00;95761.19;5087897;28;24796;-74
2022/02/04 07:51:06;;;;;;;3.58;2.97;;;;;;;3.06;100.00;95766.31;5090912;28;24414;-74
2022/02/04 07:53:34;;;;;;;2.70;2.50;;;;;;;3.06;100.00;95765.50;5090209;28;24475;-74
2022/02/04 07:56:01;;;;;;;2.63;2.43;;;;;;;3.13;100.00;95765.22;5090175;28;24438;-74
2022/02/04 07:58:28;;;;;;;5.18;3.05;;;;;;;3.15;100.00;95763.47;5089961;28;24425;-74
2022/02/04 08:00:55;;;;;;;5.20;2.70;;;;;;;3.17;100.00;95757.44;5090048;28;24450;-74
2022/02/04 08:03:37;;;;;;;3.10;2.80;;;;;;;3.13;100.00;95756.72;5091066;28;24466;-75
2022/02/04 08:06:08;;;;;;;3.42;2.70;;;;;;;3.28;100.00;95761.31;5090538;28;24421;-76
2022/02/04 08:08:44;;;;;;;2.60;2.40;;;;;;;3.31;100.00;95755.25;5089965;28;24491;-75
2022/02/04 08:11:24;;;;;;;3.38;3.08;;;;;;;3.72;100.00;95760.66;5090666;28;24977;-76
2022/02/04 08:17:07;;;;;;;3.30;3.00;;;;;;;3.79;100.00;95749.28;5089491;28;24843;-75
2022/02/04 08:22:47;;;;;;;5.72;2.58;;;;;;;3.82;100.00;95751.72;5090229;28;24968;-76
2022/02/04 08:28:42;;;;;;;3.70;2.40;;;;;;;4.09;100.00;95749.88;5108442;27;21302;-78
2022/02/04 08:31:31;;;;;;;3.38;2.80;;;;;;;4.19;100.00;95763.16;5096621;28;25049;-76
2022/02/04 08:37:08;;;;;;;6.88;3.05;;;;;;;4.02;100.00;95764.66;5096387;28;24882;-77
2022/02/04 08:50:57;;;;;;;3.55;3.15;;;;;;;3.98;100.00;95763.09;5107622;28;24490;-76
2022/02/04 08:53:49;;;;;;;4.85;4.03;;;;;;;4.06;100.00;95766.19;5103353;28;24442;-77
2022/02/04 08:56:20;;;;;;;4.38;3.53;;;;;;;4.10;100.00;95761.78;5087412;28;24421;-77
2022/02/04 08:58:51;;;;;;;5.55;4.22;;;;;;;4.19;100.00;95761.47;5087579;28;24422;-76
2022/02/04 09:01:23;;;;;;;5.07;3.97;;;;;;;4.00;100.00;95756.16;5099626;28;24958;-76
2022/02/04 09:03:52;;;;;;;4.80;4.30;;;;;;;4.12;100.00;95753.16;5107674;28;24513;-77
2022/02/04 09:06:23;;;;;;;5.43;4.15;;;;;;;4.17;100.00;95750.41;5107167;28;24447;-76
2022/02/04 09:08:53;;;;;;;4.68;4.15;;;;;;;4.11;100.00;95742.94;5107371;28;24434;-76
2022/02/04 09:11:39;;;;;;;3.70;3.22;;;;;;;4.02;100.00;95746.72;5108308;28;24433;-76
2022/02/04 09:17:00;;;;;;;3.75;3.25;;;;;;;4.12;100.00;95749.78;5106889;28;24409;-76
2022/02/04 09:19:39;;;;;;;4.20;2.72;;;;;;;4.15;100.00;95752.19;5088062;28;24801;-76
2022/02/04 09:22:18;;;;;;;2.47;2.28;;;;;;;4.05;100.00;95746.59;5086908;28;24441;-76
2022/02/04 09:24:46;;;;;;;2.00;1.80;;;;;;;4.11;100.00;95745.50;5106757;28;24533;-76
2022/02/04 09:27:12;;;;;;;2.65;2.33;;;;;;;4.19;100.00;95734.97;5117212;27;24452;-77
2022/02/04 09:29:39;;;;;;;3.80;3.15;;;;;;;4.13;100.00;95736.06;5127233;28;24422;-77
2022/02/04 09:32:07;;;;;;;2.90;2.67;;;;;;;4.27;100.00;95740.66;5106883;28;24441;-76
2022/02/04 09:34:34;;;;;;;3.95;3.13;;;;;;;4.33;100.00;95725.84;5107089;28;24434;-77
2022/02/04 09:37:00;;;;;;;3.22;2.92;;;;;;;4.27;100.00;95740.66;5106353;28;24483;-76
2022/02/04 09:39:27;;;;;;;4.45;3.55;;;;;;;4.16;100.00;95738.50;5096545;28;24433;-77
2022/02/04 09:41:53;;;;;;;5.13;3.22;;;;;;;4.24;100.00;95735.66;5113568;28;24413;-77
2022/02/04 09:44:19;;;;;;;3.80;3.15;;;;;;;4.34;100.00;95724.97;5113800;28;24424;-76
2022/02/04 09:46:46;;;;;;;3.55;2.80;;;;;;;4.38;100.00;95728.25;5095345;28;24450;-76
2022/02/04 09:49:20;;;;;;;3.67;3.33;;;;;;;4.25;100.00;95725.31;5093211;28;24423;-75
2022/02/04 10:08:58;;;;;;;3.10;2.17;;;;;;;4.30;100.00;95718.31;5112432;28;24440;-76
2022/02/04 10:14:18;;;;;;;2.92;2.35;;;;;;;4.38;100.00;95722.31;5092718;28;24475;-77
2022/02/04 10:17:11;;;;;;;3.10;2.22;;;;;;;4.34;100.00;95729.28;5108241;28;24539;-77
2022/02/04 10:19:49;;;;;;;3.23;2.70;;;;;;;4.52;100.00;95717.44;5092394;28;24480;-76
2022/02/04 10:22:24;;;;;;;3.47;3.00;;;;;;;4.49;100.00;95715.84;5092372;28;24529;-77
2022/02/04 10:25:01;;;;;;;4.68;2.88;;;;;;;4.42;100.00;95722.13;5092090;28;24426;-76
2022/02/04 10:27:32;;;;;;;3.08;2.78;;;;;;;4.39;100.00;95722.22;5091764;28;24449;-76
2022/02/04 10:30:00;;;;;;;2.95;2.53;;;;;;;4.50;100.00;95721.81;5093410;28;24507;-76
2022/02/04 10:32:44;;;;;;;2.65;2.45;;;;;;;4.40;100.00;95718.75;5112086;28;24417;-76
2022/02/04 10:35:19;;;;;;;2.65;2.17;;;;;;;4.41;100.00;95724.72;5112426;28;24449;-76
2022/02/04 10:38:01;;;;;;;2.80;2.00;;;;;;;4.46;100.00;95723.66;5112359;28;24417;-76
2022/02/04 10:40:39;;;;;;;2.25;1.65;;;;;;;4.42;100.00;95718.72;5111958;28;24490;-76
2022/02/04 10:43:26;;;;;;;2.00;1.58;;;;;;;4.57;100.00;95721.50;5091563;28;24457;-76
2022/02/04 10:46:00;;;;;;;2.00;1.50;;;;;;;4.57;100.00;95721.50;5092016;28;24437;-73
2022/02/04 10:54:54;;;;;;;3.88;1.45;;;;;;;4.39;100.00;95708.56;5086080;28;25023;-76
2022/02/04 10:57:43;;;;;;;1.40;1.10;;;;;;;4.41;100.00;95706.78;5112163;28;24425;-76
2022/02/04 11:00:27;;;;;;;1.75;0.90;;;;;;;4.38;100.00;95694.94;5108568;28;24533;-76
2022/02/04 11:02:58;;;;;;;1.73;1.23;;;;;;;4.43;100.00;95703.25;5091802;28;24483;-76
2022/02/04 11:05:31;;;;;;;1.20;1.00;;;;;;;4.40;100.00;95702.53;5092053;28;24514;-77
2022/02/04 11:30:51;;;;;;;2.28;1.00;;;;;;;4.74;100.00;95684.88;5112158;28;24494;-78
2022/02/04 11:34:07;;;;;;;1.42;1.15;;;;;;;4.62;100.00;95672.56;5028811;28;24447;-78
2022/02/04 11:37:00;;;;;;;3.15;2.85;;;;;;;4.60;100.00;95669.25;5029227;28;24451;-78
2022/02/04 11:52:02;;;;;;;3.97;1.70;;;;;;;4.40;100.00;95649.53;5111713;28;24404;-78
2022/02/04 11:54:44;;;;;;;1.90;1.35;;;;;;;4.41;100.00;95655.50;5110687;28;24479;-77
2022/02/04 11:57:21;;;;;;;2.80;1.52;;;;;;;4.30;100.00;95650.78;5091242;28;24472;-75
2022/02/04 12:00:00;;;;;;;2.65;1.25;;;;;;;4.31;100.00;95649.91;5090387;28;24459;-76
2022/02/04 12:02:36;;;;;;;1.60;1.50;;;;;;;4.29;100.00;95639.69;5110629;28;24787;-76
2022/02/04 12:05:26;;;;;;;2.45;1.25;;;;;;;4.29;100.00;95638.88;5110423;28;24490;-77
2022/02/04 12:07:57;;;;;;;1.67;1.30;;;;;;;4.26;100.00;95629.56;5089721;28;24450;-76
2022/02/04 12:10:25;;;;;;;2.28;1.80;;;;;;;4.33;100.00;95637.84;5098570;28;24432;-76
2022/02/04 12:13:12;;;;;;;1.77;1.42;;;;;;;4.22;100.00;95628.03;5090428;28;24433;-76
2022/02/04 12:15:44;;;;;;;3.70;3.05;;;;;;;4.34;100.00;95634.41;5089755;28;24525;-76
2022/02/04 12:18:14;;;;;;;6.00;4.97;;;;;;;4.36;100.00;95627.47;5089679;28;24963;-77
2022/02/04 12:21:01;;;;;;;10.32;8.27;;;;;;;4.33;100.00;95625.84;5090068;28;24410;-77
2022/02/04 12:23:44;;;;;;;2.00;1.73;;;;;;;4.33;100.00;95617.34;5089959;28;24844;-76
2022/02/04 12:26:17;;;;;;;2.53;2.33;;;;;;;4.38;100.00;95612.03;5090227;28;24754;-75
2022/02/04 12:28:47;;;;;;;3.45;2.50;;;;;;;4.41;100.00;95611.91;5089969;28;24508;-75
2022/02/04 12:31:17;;;;;;;2.00;1.67;;;;;;;4.32;100.00;95613.94;5101690;28;24461;-75
2022/02/04 12:33:47;;;;;;;1.53;1.43;;;;;;;4.31;100.00;95611.47;5110538;28;24881;-75
2022/02/04 12:36:15;;;;;;;7.32;4.35;;;;;;;4.38;100.00;95600.06;5110683;28;24421;-76
2022/02/04 12:38:43;;;;;;;4.57;3.42;;;;;;;4.39;100.00;95601.72;5107196;28;24445;-75
2022/02/04 12:41:10;;;;;;;3.80;3.38;;;;;;;4.38;100.00;95591.53;5089990;28;24418;-76
2022/02/04 12:43:37;;;;;;;1.73;1.60;;;;;;;4.34;100.00;95589.09;5090276;28;24459;-75
2022/02/04 12:46:05;;;;;;;1.80;1.60;;;;;;;4.34;100.00;95590.81;5100242;28;24437;-75
2022/02/04 12:48:31;;;;;;;2.40;2.13;;;;;;;4.25;100.00;95586.88;5109840;28;24543;-75
2022/02/04 12:50:59;;;;;;;2.60;1.50;;;;;;;4.35;100.00;95582.22;5109809;28;24974;-74
2022/02/04 12:53:28;;;;;;;1.80;1.33;;;;;;;4.35;100.00;95577.09;5109976;28;24429;-76
2022/02/04 12:56:16;;;;;;;2.22;1.48;;;;;;;4.39;100.00;95577.81;5110156;28;24421;-76
2022/02/04 12:59:06;;;;;;;2.53;1.80;;;;;;;4.33;100.00;95564.31;5110320;28;24505;-76
2022/02/04 13:10:03;;;;;;;2.30;1.80;;;;;;;4.45;100.00;95572.41;5101080;28;24525;-76
2022/02/04 13:12:30;;;;;;;3.30;2.72;;;;;;;4.48;100.00;95572.28;5100377;28;24433;-76
2022/02/04 13:14:56;;;;;;;3.15;2.85;;;;;;;4.51;100.00;95561.91;5100687;28;24437;-75
2022/02/04 13:17:30;;;;;;;2.83;1.90;;;;;;;4.55;100.00;95564.25;5102240;28;24422;-76
2022/02/04 13:19:58;;;;;;;2.20;1.90;;;;;;;4.52;100.00;95554.13;5099309;28;24445;-75
2022/02/04 13:22:26;;;;;;;2.73;2.03;;;;;;;4.43;100.00;95549.41;5101317;28;25069;-76
2022/02/04 13:25:07;;;;;;;2.45;1.80;;;;;;;4.52;100.00;95548.16;5101352;28;24487;-76
2022/02/04 13:27:34;;;;;;;3.03;2.10;;;;;;;4.57;100.00;95541.13;5101646;28;24457;-76
2022/02/04 13:30:00;;;;;;;2.30;1.90;;;;;;;4.61;100.00;95540.09;5102888;28;24928;-76
2022/02/04 13:32:27;;;;;;;2.08;1.40;;;;;;;4.61;100.00;95534.97;5125286;27;24802;-76
2022/02/04 13:34:53;;;;;;;4.70;1.70;;;;;;;4.66;100.00;95534.75;5130518;27;24443;-76
2022/02/04 13:37:30;;;;;;;3.90;2.43;;;;;;;4.63;100.00;95534.88;5133222;27;24461;-76
2022/02/04 13:40:01;;;;;;;3.35;1.90;;;;;;;4.60;100.00;95530.75;5128285;27;24465;-75
2022/02/04 13:42:37;;;;;;;2.22;1.52;;;;;;;4.62;100.00;95531.50;5133496;27;24444;-76
2022/02/04 13:45:25;;;;;;;5.43;2.38;;;;;;;4.71;100.00;95536.25;5135119;27;24433;-76
2022/02/04 13:48:00;;;;;;;7.10;2.15;;;;;;;4.65;100.00;95543.38;5131771;27;24463;-76
2022/02/04 13:50:36;;;;;;;2.42;1.05;;;;;;;4.54;100.00;95531.81;5133316;27;24440;-76
2022/02/04 13:53:15;;;;;;;2.25;1.83;;;;;;;4.56;100.00;95537.75;5132616;27;24448;-76
2022/02/04 13:55:54;;;;;;;3.30;1.60;;;;;;;4.62;100.00;95544.31;5128637;27;24562;-77
2022/02/04 13:58:32;;;;;;;1.42;1.00;;;;;;;4.57;100.00;95544.53;5130233;27;24551;-77
2022/02/04 14:01:06;;;;;;;1.52;1.40;;;;;;;4.63;100.00;95535.72;5129710;27;24490;-76
2022/02/04 14:03:37;;;;;;;5.38;1.83;;;;;;;4.62;100.00;95539.19;5132737;27;24432;-76
2022/02/04 14:06:09;;;;;;;1.83;1.40;;;;;;;4.67;100.00;95533.84;5130985;27;24456;-76
2022/02/04 14:08:47;;;;;;;1.05;0.98;;;;;;;4.64;100.00;95531.44;5133296;27;24929;-77
2022/02/04 14:11:15;;;;;;;1.42;0.70;;;;;;;4.55;100.00;95520.66;5132286;27;25083;-77
2022/02/04 14:13:41;;;;;;;3.90;0.90;;;;;;;4.51;100.00;95523.44;5131329;27;24443;-77
2022/02/04 14:16:12;;;;;;;1.40;0.70;;;;;;;4.46;100.00;95528.75;5132062;27;24431;-76
2022/02/04 14:18:38;;;;;;;1.20;0.95;;;;;;;4.39;100.00;95535.03;5120502;27;24842;-76
2022/02/04 14:21:09;;;;;;;1.10;0.80;;;;;;;4.36;100.00;95517.22;5124608;27;24487;-76
2022/02/04 14:23:36;;;;;;;1.10;0.88;;;;;;;4.40;100.00;95523.06;5129921;27;24897;-77
2022/02/04 14:26:09;;;;;;;0.70;0.60;;;;;;;4.42;100.00;95516.16;5132051;27;24790;-76
2022/02/04 14:28:42;;;;;;;0.90;0.57;;;;;;;4.45;100.00;95510.88;5132281;27;25047;-77
2022/02/04 14:31:15;;;;;;;0.70;0.60;;;;;;;4.48;100.00;95509.00;5127579;27;24796;-76
2022/02/04 14:36:41;;;;;;;1.00;0.60;;;;;;;4.51;100.00;95508.88;5125942;27;24433;-76
2022/02/04 14:53:19;;;;;;;0.60;0.50;;;;;;;4.43;100.00;95482.72;5074644;27;24461;-77
2022/02/04 15:01:20;;;;;;;2.53;1.87;;;;;;;4.41;100.00;95479.38;5103606;27;25007;-77
2022/02/04 15:03:55;;;;;;;1.95;1.00;;;;;;;4.45;100.00;95469.84;5132562;27;24424;-76
2022/02/04 15:06:28;;;;;;;7.80;3.95;;;;;;;4.38;100.00;95473.59;5132518;27;24500;-76
2022/02/04 15:08:55;;;;;;;1.52;1.10;;;;;;;4.39;100.00;95468.38;5131949;27;24583;-75
2022/02/04 15:11:30;;;;;;;5.00;3.38;;;;;;;4.43;100.00;95463.97;5131732;27;24886;-76
2022/02/04 15:13:57;;;;;;;1.48;1.17;;;;;;;4.45;100.00;95465.56;5131410;27;24460;-77
2022/02/04 15:16:24;;;;;;;4.38;2.97;;;;;;;4.50;100.00;95463.63;5129202;27;24849;-77
2022/02/04 15:18:50;;;;;;;4.35;2.72;;;;;;;4.46;100.00;95462.09;5130621;27;24432;-76
2022/02/04 15:21:18;;;;;;;2.78;1.60;;;;;;;4.40;100.00;95462.34;5131443;27;24804;-77
2022/02/04 15:23:50;;;;;;;4.80;3.40;;;;;;;4.49;100.00;95458.56;5131530;27;24441;-76
2022/02/04 15:26:18;;;;;;;11.02;7.97;;;;;;;4.48;100.00;95467.97;5128719;27;24436;-76
2022/02/04 15:28:49;;;;;;;2.30;2.10;;;;;;;4.44;100.00;95463.03;5132046;27;24439;-78
2022/02/04 15:31:26;;;;;;;4.13;3.25;;;;;;;4.46;100.00;95461.25;5129498;27;24447;-77
2022/02/04 15:33:54;;;;;;;5.55;2.90;;;;;;;4.48;100.00;95462.84;5131605;27;24478;-77
2022/02/04 15:36:27;;;;;;;4.88;3.95;;;;;;;4.52;100.00;95454.09;5130979;27;24424;-78
2022/02/04 15:38:54;;;;;;;2.83;2.00;;;;;;;4.55;100.00;95445.47;5129617;27;24441;-76
2022/02/04 15:41:23;;;;;;;2.15;1.13;;;;;;;4.49;100.00;95459.41;5129669;27;25184;-77
2022/02/04 15:43:55;;;;;;;2.25;0.70;;;;;;;4.52;100.00;95461.81;5131398;27;25038;-76
2022/02/04 15:46:43;;;;;;;1.20;1.00;;;;;;;4.47;100.00;95463.75;5133375;27;24856;-76
2022/02/04 15:49:29;;;;;;;1.10;0.75;;;;;;;4.50;100.00;95458.50;5144427;27;24444;-77
2022/02/04 15:52:40;;;;;;;2.08;0.55;;;;;;;4.49;100.00;95459.41;5152377;27;24448;-77
2022/02/04 15:55:31;;;;;;;0.60;0.50;;;;;;;4.43;100.00;95448.56;5141581;27;25035;-77
2022/02/04 15:58:14;;;;;;;3.60;0.90;;;;;;;4.55;100.00;95437.75;5131476;27;24425;-76